sensor_id;sensor_type;location;lat;lon;timestamp;noise_LAeq;noise_LA_min;noise_LA_max;noise_LA01;noise_LA95
60503;Laerm;51448;51.660;5.824;2023-08-07T00:02:21;48.92;34.49;70.78;;
60503;Laerm;51448;51.660;5.824;2023-08-07T00:04:49;47.58;36.91;58.60;;
60503;Laerm;51448;51.660;5.824;2023-08-07T00:07:16;49.42;37.01;69.49;;
60503;Laerm;51448;51.660;5.824;2023-08-07T00:09:45;47.77;36.19;59.08;;
60503;Laerm;51448;51.660;5.824;2023-08-07T00:12:12;49.99;36.28;72.21;;
60503;Laerm;51448;51.660;5.824;2023-08-07T00:14:40;47.88;33.28;58.91;;
60503;Laerm;51448;51.660;5.824;2023-08-07T00:17:07;47.93;35.71;70.33;;
60503;Laerm;51448;51.660;5.824;2023-08-07T00:19:35;48.16;34.78;67.49;;
60503;Laerm;51448;51.660;5.824;2023-08-07T00:22:03;49.26;36.11;66.32;;
60503;Laerm;51448;51.660;5.824;2023-08-07T00:24:31;46.94;34.44;58.71;;
60503;Laerm;51448;51.660;5.824;2023-08-07T00:26:58;47.29;34.94;58.65;;
60503;Laerm;51448;51.660;5.824;2023-08-07T00:29:26;48.55;35.44;63.82;;
60503;Laerm;51448;51.660;5.824;2023-08-07T00:31:54;47.34;34.84;60.79;;
60503;Laerm;51448;51.660;5.824;2023-08-07T00:34:21;49.57;36.18;59.32;;
60503;Laerm;51448;51.660;5.824;2023-08-07T00:36:49;47.61;35.63;59.31;;
60503;Laerm;51448;51.660;5.824;2023-08-07T00:39:17;48.17;34.89;62.45;;
60503;Laerm;51448;51.660;5.824;2023-08-07T00:41:44;49.06;36.80;59.74;;
60503;Laerm;51448;51.660;5.824;2023-08-07T00:44:12;48.62;36.37;67.76;;
60503;Laerm;51448;51.660;5.824;2023-08-07T00:46:42;48.01;35.99;60.21;;
60503;Laerm;51448;51.660;5.824;2023-08-07T00:49:12;48.06;36.31;59.28;;
60503;Laerm;51448;51.660;5.824;2023-08-07T00:51:40;49.07;36.32;70.17;;
60503;Laerm;51448;51.660;5.824;2023-08-07T00:54:11;47.87;35.29;59.67;;
60503;Laerm;51448;51.660;5.824;2023-08-07T00:56:39;46.66;35.25;58.78;;
60503;Laerm;51448;51.660;5.824;2023-08-07T00:59:07;49.66;38.11;67.15;;
60503;Laerm;51448;51.660;5.824;2023-08-07T01:01:35;47.58;35.88;59.15;;
60503;Laerm;51448;51.660;5.824;2023-08-07T01:04:03;48.83;36.71;63.57;;
60503;Laerm;51448;51.660;5.824;2023-08-07T01:06:31;50.46;42.70;59.25;;
60503;Laerm;51448;51.660;5.824;2023-08-07T01:08:59;50.66;41.49;58.24;;
60503;Laerm;51448;51.660;5.824;2023-08-07T01:11:39;47.30;35.78;58.52;;
60503;Laerm;51448;51.660;5.824;2023-08-07T01:14:37;47.81;35.24;61.75;;
60503;Laerm;51448;51.660;5.824;2023-08-07T01:17:10;48.99;36.75;68.20;;
60503;Laerm;51448;51.660;5.824;2023-08-07T01:19:40;47.89;37.43;68.87;;
60503;Laerm;51448;51.660;5.824;2023-08-07T01:22:10;47.93;34.80;58.96;;
60503;Laerm;51448;51.660;5.824;2023-08-07T01:24:42;47.69;33.76;59.48;;
60503;Laerm;51448;51.660;5.824;2023-08-07T01:27:23;47.29;33.18;59.91;;
60503;Laerm;51448;51.660;5.824;2023-08-07T01:33:23;46.26;34.62;59.38;;
60503;Laerm;51448;51.660;5.824;2023-08-07T01:35:57;47.48;33.73;59.61;;
60503;Laerm;51448;51.660;5.824;2023-08-07T01:38:29;46.86;35.60;58.80;;
60503;Laerm;51448;51.660;5.824;2023-08-07T01:40:58;47.93;36.83;70.17;;
60503;Laerm;51448;51.660;5.824;2023-08-07T01:43:26;49.87;35.82;79.38;;
60503;Laerm;51448;51.660;5.824;2023-08-07T01:45:54;47.98;38.36;61.70;;
60503;Laerm;51448;51.660;5.824;2023-08-07T01:48:21;48.18;38.74;58.51;;
60503;Laerm;51448;51.660;5.824;2023-08-07T01:50:53;48.70;38.13;68.39;;
60503;Laerm;51448;51.660;5.824;2023-08-07T01:53:21;46.59;36.27;58.05;;
60503;Laerm;51448;51.660;5.824;2023-08-07T01:55:49;47.16;34.95;59.50;;
60503;Laerm;51448;51.660;5.824;2023-08-07T01:58:16;46.52;36.35;58.22;;
60503;Laerm;51448;51.660;5.824;2023-08-07T02:00:44;46.82;33.72;63.52;;
60503;Laerm;51448;51.660;5.824;2023-08-07T02:03:11;46.73;34.45;58.08;;
60503;Laerm;51448;51.660;5.824;2023-08-07T02:05:39;49.19;35.76;63.03;;
60503;Laerm;51448;51.660;5.824;2023-08-07T02:08:06;48.57;36.09;64.67;;
60503;Laerm;51448;51.660;5.824;2023-08-07T02:10:34;45.94;32.89;58.11;;
60503;Laerm;51448;51.660;5.824;2023-08-07T02:13:02;46.37;32.16;57.95;;
60503;Laerm;51448;51.660;5.824;2023-08-07T02:15:30;47.44;32.40;59.45;;
60503;Laerm;51448;51.660;5.824;2023-08-07T02:17:57;47.24;36.06;58.64;;
60503;Laerm;51448;51.660;5.824;2023-08-07T02:20:25;49.15;37.46;59.39;;
60503;Laerm;51448;51.660;5.824;2023-08-07T02:22:52;48.75;35.43;61.49;;
60503;Laerm;51448;51.660;5.824;2023-08-07T02:25:20;47.40;34.90;67.63;;
60503;Laerm;51448;51.660;5.824;2023-08-07T02:27:47;48.71;35.29;77.33;;
60503;Laerm;51448;51.660;5.824;2023-08-07T02:30:16;48.03;33.71;60.95;;
60503;Laerm;51448;51.660;5.824;2023-08-07T02:32:44;47.08;33.60;58.79;;
60503;Laerm;51448;51.660;5.824;2023-08-07T02:35:12;48.68;40.06;60.98;;
60503;Laerm;51448;51.660;5.824;2023-08-07T02:37:39;49.65;38.49;68.65;;
60503;Laerm;51448;51.660;5.824;2023-08-07T02:40:07;49.35;38.94;68.89;;
60503;Laerm;51448;51.660;5.824;2023-08-07T02:42:35;48.73;37.44;63.54;;
60503;Laerm;51448;51.660;5.824;2023-08-07T02:45:03;47.86;36.17;60.27;;
60503;Laerm;51448;51.660;5.824;2023-08-07T02:47:31;47.80;34.77;63.21;;
60503;Laerm;51448;51.660;5.824;2023-08-07T02:49:59;48.23;34.47;59.92;;
60503;Laerm;51448;51.660;5.824;2023-08-07T02:52:27;48.62;36.59;66.86;;
60503;Laerm;51448;51.660;5.824;2023-08-07T02:54:55;47.57;36.88;58.56;;
60503;Laerm;51448;51.660;5.824;2023-08-07T02:57:23;47.69;34.28;58.97;;
60503;Laerm;51448;51.660;5.824;2023-08-07T02:59:55;46.95;35.15;58.43;;
60503;Laerm;51448;51.660;5.824;2023-08-07T03:02:23;48.27;34.09;61.32;;
60503;Laerm;51448;51.660;5.824;2023-08-07T03:04:50;46.68;35.52;57.94;;
60503;Laerm;51448;51.660;5.824;2023-08-07T03:07:18;48.16;36.11;60.33;;
60503;Laerm;51448;51.660;5.824;2023-08-07T03:09:46;47.32;36.28;58.26;;
60503;Laerm;51448;51.660;5.824;2023-08-07T03:12:14;47.12;35.07;58.39;;
60503;Laerm;51448;51.660;5.824;2023-08-07T03:14:42;47.25;35.53;58.16;;
60503;Laerm;51448;51.660;5.824;2023-08-07T03:17:10;47.16;34.79;58.40;;
60503;Laerm;51448;51.660;5.824;2023-08-07T03:19:42;46.82;35.75;58.43;;
60503;Laerm;51448;51.660;5.824;2023-08-07T03:22:12;46.95;35.07;62.61;;
60503;Laerm;51448;51.660;5.824;2023-08-07T03:24:40;48.20;36.69;58.76;;
60503;Laerm;51448;51.660;5.824;2023-08-07T03:27:07;47.27;35.84;65.88;;
60503;Laerm;51448;51.660;5.824;2023-08-07T03:29:35;49.95;39.36;62.32;;
60503;Laerm;51448;51.660;5.824;2023-08-07T03:32:03;47.93;35.58;62.98;;
60503;Laerm;51448;51.660;5.824;2023-08-07T03:34:34;48.73;35.98;67.17;;
60503;Laerm;51448;51.660;5.824;2023-08-07T03:37:03;47.77;36.45;59.07;;
60503;Laerm;51448;51.660;5.824;2023-08-07T03:39:30;46.47;35.95;57.99;;
60503;Laerm;51448;51.660;5.824;2023-08-07T03:41:58;48.62;35.66;61.99;;
60503;Laerm;51448;51.660;5.824;2023-08-07T03:44:26;48.63;36.60;64.80;;
60503;Laerm;51448;51.660;5.824;2023-08-07T03:46:54;47.03;36.43;57.71;;
60503;Laerm;51448;51.660;5.824;2023-08-07T03:49:25;46.24;35.06;58.22;;
60503;Laerm;51448;51.660;5.824;2023-08-07T03:51:53;47.82;36.03;59.27;;
60503;Laerm;51448;51.660;5.824;2023-08-07T03:54:21;47.18;35.79;59.28;;
60503;Laerm;51448;51.660;5.824;2023-08-07T03:56:49;48.14;34.01;68.53;;
60503;Laerm;51448;51.660;5.824;2023-08-07T03:59:18;47.02;35.72;68.22;;
60503;Laerm;51448;51.660;5.824;2023-08-07T04:01:46;46.92;33.80;58.86;;
60503;Laerm;51448;51.660;5.824;2023-08-07T04:04:14;47.12;36.80;58.46;;
60503;Laerm;51448;51.660;5.824;2023-08-07T04:06:42;48.43;35.75;59.20;;
60503;Laerm;51448;51.660;5.824;2023-08-07T04:09:14;49.79;36.09;64.58;;
60503;Laerm;51448;51.660;5.824;2023-08-07T04:11:41;48.21;36.27;59.12;;
60503;Laerm;51448;51.660;5.824;2023-08-07T04:14:09;48.82;39.16;60.38;;
60503;Laerm;51448;51.660;5.824;2023-08-07T04:16:37;48.49;39.12;59.32;;
60503;Laerm;51448;51.660;5.824;2023-08-07T04:19:05;48.92;37.86;60.76;;
60503;Laerm;51448;51.660;5.824;2023-08-07T04:21:34;47.92;36.16;63.00;;
60503;Laerm;51448;51.660;5.824;2023-08-07T04:24:03;50.29;35.18;72.31;;
60503;Laerm;51448;51.660;5.824;2023-08-07T04:26:37;48.57;36.22;70.32;;
60503;Laerm;51448;51.660;5.824;2023-08-07T04:29:05;47.82;36.40;63.42;;
60503;Laerm;51448;51.660;5.824;2023-08-07T04:31:33;48.76;36.79;65.12;;
60503;Laerm;51448;51.660;5.824;2023-08-07T04:34:01;49.20;35.94;60.21;;
60503;Laerm;51448;51.660;5.824;2023-08-07T04:36:29;47.69;37.58;59.19;;
60503;Laerm;51448;51.660;5.824;2023-08-07T04:38:56;49.89;38.10;65.17;;
60503;Laerm;51448;51.660;5.824;2023-08-07T04:41:24;49.67;38.28;67.03;;
60503;Laerm;51448;51.660;5.824;2023-08-07T04:43:52;49.18;37.16;70.99;;
60503;Laerm;51448;51.660;5.824;2023-08-07T04:46:19;48.73;36.37;60.84;;
60503;Laerm;51448;51.660;5.824;2023-08-07T04:48:47;50.02;37.04;60.74;;
60503;Laerm;51448;51.660;5.824;2023-08-07T04:51:15;48.12;36.03;62.45;;
60503;Laerm;51448;51.660;5.824;2023-08-07T04:53:43;49.37;36.99;69.18;;
60503;Laerm;51448;51.660;5.824;2023-08-07T04:56:10;48.41;36.18;57.74;;
60503;Laerm;51448;51.660;5.824;2023-08-07T04:58:38;52.34;37.99;64.17;;
60503;Laerm;51448;51.660;5.824;2023-08-07T05:01:06;50.45;39.25;63.02;;
60503;Laerm;51448;51.660;5.824;2023-08-07T05:03:34;48.80;36.38;66.06;;
60503;Laerm;51448;51.660;5.824;2023-08-07T05:06:02;48.80;35.17;59.43;;
60503;Laerm;51448;51.660;5.824;2023-08-07T05:08:29;48.23;34.67;64.13;;
60503;Laerm;51448;51.660;5.824;2023-08-07T05:10:57;49.39;36.71;61.86;;
60503;Laerm;51448;51.660;5.824;2023-08-07T05:13:24;50.62;37.18;60.81;;
60503;Laerm;51448;51.660;5.824;2023-08-07T05:15:52;48.25;37.33;59.30;;
60503;Laerm;51448;51.660;5.824;2023-08-07T05:18:19;49.06;36.75;60.28;;
60503;Laerm;51448;51.660;5.824;2023-08-07T05:20:47;49.62;38.29;60.83;;
60503;Laerm;51448;51.660;5.824;2023-08-07T05:23:15;49.13;36.97;64.27;;
60503;Laerm;51448;51.660;5.824;2023-08-07T05:25:45;49.41;37.50;58.58;;
60503;Laerm;51448;51.660;5.824;2023-08-07T05:28:16;48.41;37.16;59.79;;
60503;Laerm;51448;51.660;5.824;2023-08-07T05:30:43;51.60;39.20;73.95;;
60503;Laerm;51448;51.660;5.824;2023-08-07T05:33:11;50.24;37.90;60.49;;
60503;Laerm;51448;51.660;5.824;2023-08-07T05:35:42;50.48;38.57;61.67;;
60503;Laerm;51448;51.660;5.824;2023-08-07T05:38:10;50.44;40.04;59.24;;
60503;Laerm;51448;51.660;5.824;2023-08-07T05:40:37;52.54;39.77;65.40;;
60503;Laerm;51448;51.660;5.824;2023-08-07T05:43:05;49.71;38.67;72.82;;
60503;Laerm;51448;51.660;5.824;2023-08-07T05:45:32;51.52;38.27;61.76;;
60503;Laerm;51448;51.660;5.824;2023-08-07T05:48:00;48.20;38.71;59.99;;
60503;Laerm;51448;51.660;5.824;2023-08-07T05:50:27;49.81;39.89;62.18;;
60503;Laerm;51448;51.660;5.824;2023-08-07T05:52:55;49.78;37.69;63.54;;
60503;Laerm;51448;51.660;5.824;2023-08-07T05:55:23;51.28;38.12;60.81;;
60503;Laerm;51448;51.660;5.824;2023-08-07T05:57:50;51.60;40.08;66.79;;
60503;Laerm;51448;51.660;5.824;2023-08-07T06:00:18;49.87;39.43;59.72;;
60503;Laerm;51448;51.660;5.824;2023-08-07T06:02:46;48.31;37.89;59.70;;
60503;Laerm;51448;51.660;5.824;2023-08-07T06:05:14;47.95;38.94;59.42;;
60503;Laerm;51448;51.660;5.824;2023-08-07T06:07:43;46.86;38.79;58.26;;
60503;Laerm;51448;51.660;5.824;2023-08-07T06:10:11;50.76;38.69;61.70;;
60503;Laerm;51448;51.660;5.824;2023-08-07T06:12:39;48.82;36.75;66.42;;
60503;Laerm;51448;51.660;5.824;2023-08-07T06:15:07;50.04;39.14;61.32;;
60503;Laerm;51448;51.660;5.824;2023-08-07T06:17:34;51.93;38.93;69.27;;
60503;Laerm;51448;51.660;5.824;2023-08-07T06:20:02;55.37;49.00;65.18;;
60503;Laerm;51448;51.660;5.824;2023-08-07T06:22:32;50.55;39.19;60.63;;
60503;Laerm;51448;51.660;5.824;2023-08-07T06:25:00;50.49;37.76;67.19;;
60503;Laerm;51448;51.660;5.824;2023-08-07T06:27:27;49.43;37.99;62.16;;
60503;Laerm;51448;51.660;5.824;2023-08-07T06:29:55;50.89;38.12;64.27;;
60503;Laerm;51448;51.660;5.824;2023-08-07T06:32:24;49.43;38.04;65.44;;
60503;Laerm;51448;51.660;5.824;2023-08-07T06:34:53;47.25;37.96;61.04;;
60503;Laerm;51448;51.660;5.824;2023-08-07T06:37:20;47.50;38.52;58.46;;
60503;Laerm;51448;51.660;5.824;2023-08-07T06:39:48;50.41;37.80;65.05;;
60503;Laerm;51448;51.660;5.824;2023-08-07T06:42:16;49.66;38.95;63.10;;
60503;Laerm;51448;51.660;5.824;2023-08-07T06:44:44;47.53;38.21;58.34;;
60503;Laerm;51448;51.660;5.824;2023-08-07T06:47:12;50.16;37.41;59.10;;
60503;Laerm;51448;51.660;5.824;2023-08-07T06:49:39;51.30;37.25;68.77;;
60503;Laerm;51448;51.660;5.824;2023-08-07T06:52:07;50.00;37.26;59.63;;
60503;Laerm;51448;51.660;5.824;2023-08-07T06:54:34;48.91;36.65;59.81;;
60503;Laerm;51448;51.660;5.824;2023-08-07T06:57:02;51.98;37.51;63.64;;
60503;Laerm;51448;51.660;5.824;2023-08-07T06:59:30;49.00;36.81;68.75;;
60503;Laerm;51448;51.660;5.824;2023-08-07T07:01:57;48.23;37.58;59.29;;
60503;Laerm;51448;51.660;5.824;2023-08-07T07:04:26;48.80;35.05;70.99;;
60503;Laerm;51448;51.660;5.824;2023-08-07T07:06:53;48.67;37.35;58.77;;
60503;Laerm;51448;51.660;5.824;2023-08-07T07:09:21;50.16;36.31;66.19;;
60503;Laerm;51448;51.660;5.824;2023-08-07T07:11:48;49.40;36.51;64.97;;
60503;Laerm;51448;51.660;5.824;2023-08-07T07:14:16;49.36;34.72;58.65;;
60503;Laerm;51448;51.660;5.824;2023-08-07T07:16:43;47.93;33.69;59.56;;
60503;Laerm;51448;51.660;5.824;2023-08-07T07:19:11;46.52;34.84;60.06;;
60503;Laerm;51448;51.660;5.824;2023-08-07T07:21:38;50.08;36.79;60.97;;
60503;Laerm;51448;51.660;5.824;2023-08-07T07:24:06;47.01;36.91;58.59;;
60503;Laerm;51448;51.660;5.824;2023-08-07T07:26:33;51.19;38.33;63.23;;
60503;Laerm;51448;51.660;5.824;2023-08-07T07:29:01;50.39;37.19;65.53;;
60503;Laerm;51448;51.660;5.824;2023-08-07T07:31:29;49.11;37.14;60.32;;
60503;Laerm;51448;51.660;5.824;2023-08-07T07:33:56;50.14;38.30;60.46;;
60503;Laerm;51448;51.660;5.824;2023-08-07T07:36:24;50.53;38.17;68.32;;
60503;Laerm;51448;51.660;5.824;2023-08-07T07:38:51;48.31;36.90;61.36;;
60503;Laerm;51448;51.660;5.824;2023-08-07T07:41:19;48.72;39.93;65.02;;
60503;Laerm;51448;51.660;5.824;2023-08-07T07:43:46;49.23;38.05;60.61;;
60503;Laerm;51448;51.660;5.824;2023-08-07T07:46:14;50.31;41.95;65.66;;
60503;Laerm;51448;51.660;5.824;2023-08-07T07:48:41;51.32;39.69;64.47;;
60503;Laerm;51448;51.660;5.824;2023-08-07T07:51:10;50.59;40.08;69.93;;
60503;Laerm;51448;51.660;5.824;2023-08-07T07:53:37;49.26;38.96;60.46;;
60503;Laerm;51448;51.660;5.824;2023-08-07T07:56:05;48.43;40.30;65.34;;
60503;Laerm;51448;51.660;5.824;2023-08-07T07:58:32;48.99;38.90;59.85;;
60503;Laerm;51448;51.660;5.824;2023-08-07T08:01:00;50.15;40.66;71.12;;
60503;Laerm;51448;51.660;5.824;2023-08-07T08:03:27;50.51;41.64;64.73;;
60503;Laerm;51448;51.660;5.824;2023-08-07T08:05:56;50.25;40.27;71.70;;
60503;Laerm;51448;51.660;5.824;2023-08-07T08:08:23;49.85;38.54;67.04;;
60503;Laerm;51448;51.660;5.824;2023-08-07T08:10:54;52.12;42.28;72.12;;
60503;Laerm;51448;51.660;5.824;2023-08-07T08:13:22;49.56;41.32;60.87;;
60503;Laerm;51448;51.660;5.824;2023-08-07T08:15:51;48.42;40.87;62.44;;
60503;Laerm;51448;51.660;5.824;2023-08-07T08:18:18;49.23;40.77;65.12;;
60503;Laerm;51448;51.660;5.824;2023-08-07T08:20:46;57.17;39.31;69.70;;
60503;Laerm;51448;51.660;5.824;2023-08-07T08:23:13;47.14;39.89;60.24;;
60503;Laerm;51448;51.660;5.824;2023-08-07T08:25:41;47.98;38.07;68.54;;
60503;Laerm;51448;51.660;5.824;2023-08-07T08:28:08;49.34;38.72;65.69;;
60503;Laerm;51448;51.660;5.824;2023-08-07T08:30:36;48.95;37.86;67.41;;
60503;Laerm;51448;51.660;5.824;2023-08-07T08:33:04;50.27;38.63;63.64;;
60503;Laerm;51448;51.660;5.824;2023-08-07T08:35:32;49.42;38.74;69.98;;
60503;Laerm;51448;51.660;5.824;2023-08-07T08:38:00;49.07;37.73;59.21;;
60503;Laerm;51448;51.660;5.824;2023-08-07T08:40:30;49.71;36.55;67.94;;
60503;Laerm;51448;51.660;5.824;2023-08-07T08:43:00;53.52;39.60;75.62;;
60503;Laerm;51448;51.660;5.824;2023-08-07T08:45:30;51.71;41.36;74.29;;
60503;Laerm;51448;51.660;5.824;2023-08-07T08:48:03;53.66;43.96;74.05;;
60503;Laerm;51448;51.660;5.824;2023-08-07T08:50:33;53.91;42.93;76.51;;
60503;Laerm;51448;51.660;5.824;2023-08-07T08:53:05;51.08;40.07;72.72;;
60503;Laerm;51448;51.660;5.824;2023-08-07T08:55:36;53.45;39.45;76.06;;
60503;Laerm;51448;51.660;5.824;2023-08-07T08:58:05;54.98;43.23;66.91;;
60503;Laerm;51448;51.660;5.824;2023-08-07T09:00:34;49.49;42.16;66.66;;
60503;Laerm;51448;51.660;5.824;2023-08-07T09:03:02;54.46;43.60;70.41;;
60503;Laerm;51448;51.660;5.824;2023-08-07T09:05:31;55.27;42.52;69.61;;
60503;Laerm;51448;51.660;5.824;2023-08-07T09:08:00;50.82;43.32;73.00;;
60503;Laerm;51448;51.660;5.824;2023-08-07T09:10:29;50.42;41.61;68.53;;
60503;Laerm;51448;51.660;5.824;2023-08-07T09:13:03;52.16;43.05;69.47;;
60503;Laerm;51448;51.660;5.824;2023-08-07T09:15:35;48.87;42.10;62.96;;
60503;Laerm;51448;51.660;5.824;2023-08-07T09:18:07;51.88;42.99;73.40;;
60503;Laerm;51448;51.660;5.824;2023-08-07T09:20:37;51.70;43.44;75.52;;
60503;Laerm;51448;51.660;5.824;2023-08-07T09:23:06;52.33;43.35;75.50;;
60503;Laerm;51448;51.660;5.824;2023-08-07T09:25:35;49.70;42.90;73.45;;
60503;Laerm;51448;51.660;5.824;2023-08-07T09:28:05;47.32;40.52;56.75;;
60503;Laerm;51448;51.660;5.824;2023-08-07T09:30:36;51.29;40.97;71.07;;
60503;Laerm;51448;51.660;5.824;2023-08-07T09:33:05;52.09;41.05;74.77;;
60503;Laerm;51448;51.660;5.824;2023-08-07T09:35:33;58.63;46.09;82.80;;
60503;Laerm;51448;51.660;5.824;2023-08-07T09:38:02;51.08;41.56;72.63;;
60503;Laerm;51448;51.660;5.824;2023-08-07T09:40:29;51.48;42.32;80.92;;
60503;Laerm;51448;51.660;5.824;2023-08-07T09:43:00;54.45;43.69;81.10;;
60503;Laerm;51448;51.660;5.824;2023-08-07T09:45:28;50.89;39.95;75.82;;
60503;Laerm;51448;51.660;5.824;2023-08-07T09:48:03;51.04;38.52;71.67;;
60503;Laerm;51448;51.660;5.824;2023-08-07T09:50:31;52.81;42.55;70.08;;
60503;Laerm;51448;51.660;5.824;2023-08-07T09:53:00;50.94;41.06;66.55;;
60503;Laerm;51448;51.660;5.824;2023-08-07T09:55:27;53.15;41.12;75.77;;
60503;Laerm;51448;51.660;5.824;2023-08-07T09:57:55;49.92;41.54;66.16;;
60503;Laerm;51448;51.660;5.824;2023-08-07T10:00:23;57.86;41.21;75.20;;
60503;Laerm;51448;51.660;5.824;2023-08-07T10:02:51;66.22;43.79;81.80;;
60503;Laerm;51448;51.660;5.824;2023-08-07T10:05:19;46.55;39.17;62.88;;
60503;Laerm;51448;51.660;5.824;2023-08-07T10:07:48;49.03;38.89;71.57;;
60503;Laerm;51448;51.660;5.824;2023-08-07T10:10:17;51.86;39.57;80.15;;
60503;Laerm;51448;51.660;5.824;2023-08-07T10:12:44;51.77;41.43;80.74;;
60503;Laerm;51448;51.660;5.824;2023-08-07T10:15:15;47.13;37.87;74.09;;
60503;Laerm;51448;51.660;5.824;2023-08-07T10:17:43;43.03;36.68;59.01;;
60503;Laerm;51448;51.660;5.824;2023-08-07T10:20:12;48.53;38.34;61.94;;
60503;Laerm;51448;51.660;5.824;2023-08-07T10:22:42;51.60;40.59;69.73;;
60503;Laerm;51448;51.660;5.824;2023-08-07T10:25:10;49.47;40.07;68.73;;
60503;Laerm;51448;51.660;5.824;2023-08-07T10:27:44;46.78;37.90;58.06;;
60503;Laerm;51448;51.660;5.824;2023-08-07T10:30:14;44.98;36.65;63.72;;
60503;Laerm;51448;51.660;5.824;2023-08-07T10:32:44;45.89;35.08;57.20;;
60503;Laerm;51448;51.660;5.824;2023-08-07T10:35:33;47.40;34.72;59.79;;
60503;Laerm;51448;51.660;5.824;2023-08-07T10:38:10;43.99;35.72;55.46;;
60503;Laerm;51448;51.660;5.824;2023-08-07T10:41:05;51.08;36.54;75.44;;
60503;Laerm;51448;51.660;5.824;2023-08-07T10:43:42;45.39;36.55;57.70;;
60503;Laerm;51448;51.660;5.824;2023-08-07T10:46:20;48.43;37.04;63.53;;
60503;Laerm;51448;51.660;5.824;2023-08-07T10:48:55;47.44;36.48;59.99;;
60503;Laerm;51448;51.660;5.824;2023-08-07T10:51:30;47.09;35.76;66.86;;
60503;Laerm;51448;51.660;5.824;2023-08-07T10:54:02;48.07;35.76;60.44;;
60503;Laerm;51448;51.660;5.824;2023-08-07T10:56:33;46.88;37.24;57.15;;
60503;Laerm;51448;51.660;5.824;2023-08-07T10:59:12;46.50;36.33;56.38;;
60503;Laerm;51448;51.660;5.824;2023-08-07T11:01:43;49.78;35.97;59.86;;
60503;Laerm;51448;51.660;5.824;2023-08-07T11:04:18;46.57;35.35;59.02;;
60503;Laerm;51448;51.660;5.824;2023-08-07T11:06:48;46.08;36.40;57.88;;
60503;Laerm;51448;51.660;5.824;2023-08-07T11:09:16;45.47;35.70;55.45;;
60503;Laerm;51448;51.660;5.824;2023-08-07T11:11:46;46.26;35.19;61.02;;
60503;Laerm;51448;51.660;5.824;2023-08-07T11:14:17;47.32;37.71;59.48;;
60503;Laerm;51448;51.660;5.824;2023-08-07T11:16:48;55.35;42.27;74.05;;
60503;Laerm;51448;51.660;5.824;2023-08-07T11:19:17;52.96;41.93;67.11;;
60503;Laerm;51448;51.660;5.824;2023-08-07T11:21:45;50.20;41.69;73.75;;
60503;Laerm;51448;51.660;5.824;2023-08-07T11:24:16;50.41;40.98;69.79;;
60503;Laerm;51448;51.660;5.824;2023-08-07T11:26:46;51.04;41.13;69.78;;
60503;Laerm;51448;51.660;5.824;2023-08-07T11:29:18;48.74;37.95;62.74;;
60503;Laerm;51448;51.660;5.824;2023-08-07T11:31:46;50.48;39.10;70.44;;
60503;Laerm;51448;51.660;5.824;2023-08-07T11:34:17;50.01;40.76;68.83;;
60503;Laerm;51448;51.660;5.824;2023-08-07T11:36:45;50.82;39.42;72.24;;
60503;Laerm;51448;51.660;5.824;2023-08-07T11:39:13;51.37;40.77;72.71;;
60503;Laerm;51448;51.660;5.824;2023-08-07T11:41:41;50.78;39.97;71.10;;
60503;Laerm;51448;51.660;5.824;2023-08-07T11:44:10;51.96;39.81;78.87;;
60503;Laerm;51448;51.660;5.824;2023-08-07T11:46:38;58.18;41.18;81.41;;
60503;Laerm;51448;51.660;5.824;2023-08-07T11:49:07;56.25;38.38;88.13;;
60503;Laerm;51448;51.660;5.824;2023-08-07T11:51:35;64.06;38.61;93.53;;
60503;Laerm;51448;51.660;5.824;2023-08-07T11:54:03;55.98;42.57;86.53;;
60503;Laerm;51448;51.660;5.824;2023-08-07T11:56:31;57.13;40.03;82.37;;
60503;Laerm;51448;51.660;5.824;2023-08-07T11:58:58;56.05;42.18;83.48;;
60503;Laerm;51448;51.660;5.824;2023-08-07T12:01:26;52.05;41.91;74.74;;
60503;Laerm;51448;51.660;5.824;2023-08-07T12:06:38;51.64;41.99;72.73;;
60503;Laerm;51448;51.660;5.824;2023-08-07T12:09:12;57.06;39.53;85.11;;
60503;Laerm;51448;51.660;5.824;2023-08-07T12:11:40;57.17;42.13;84.12;;
60503;Laerm;51448;51.660;5.824;2023-08-07T12:14:08;55.61;42.78;82.35;;
60503;Laerm;51448;51.660;5.824;2023-08-07T12:16:35;53.42;40.47;71.51;;
60503;Laerm;51448;51.660;5.824;2023-08-07T12:19:03;50.13;40.89;70.51;;
60503;Laerm;51448;51.660;5.824;2023-08-07T12:21:31;51.04;40.60;73.16;;
60503;Laerm;51448;51.660;5.824;2023-08-07T12:24:01;53.93;39.50;80.35;;
60503;Laerm;51448;51.660;5.824;2023-08-07T12:26:28;57.10;37.29;80.12;;
60503;Laerm;51448;51.660;5.824;2023-08-07T12:28:56;57.38;42.54;87.81;;
60503;Laerm;51448;51.660;5.824;2023-08-07T12:31:24;51.20;39.66;77.44;;
60503;Laerm;51448;51.660;5.824;2023-08-07T12:33:51;51.04;39.50;77.46;;
60503;Laerm;51448;51.660;5.824;2023-08-07T12:36:19;53.38;40.14;75.38;;
60503;Laerm;51448;51.660;5.824;2023-08-07T12:38:48;50.17;39.12;71.41;;
60503;Laerm;51448;51.660;5.824;2023-08-07T12:41:15;57.07;37.15;75.18;;
60503;Laerm;51448;51.660;5.824;2023-08-07T12:43:46;54.13;41.78;71.84;;
60503;Laerm;51448;51.660;5.824;2023-08-07T12:46:14;58.26;45.98;74.37;;
60503;Laerm;51448;51.660;5.824;2023-08-07T12:48:45;59.64;48.78;85.25;;
60503;Laerm;51448;51.660;5.824;2023-08-07T12:51:12;70.11;44.57;83.25;;
60503;Laerm;51448;51.660;5.824;2023-08-07T12:53:40;56.44;40.21;74.88;;
60503;Laerm;51448;51.660;5.824;2023-08-07T12:56:08;50.33;40.87;71.27;;
60503;Laerm;51448;51.660;5.824;2023-08-07T12:58:35;57.35;42.74;80.78;;
60503;Laerm;51448;51.660;5.824;2023-08-07T13:01:04;57.34;48.43;81.04;;
60503;Laerm;51448;51.660;5.824;2023-08-07T13:03:32;58.09;48.89;79.25;;
60503;Laerm;51448;51.660;5.824;2023-08-07T13:06:00;57.36;47.15;78.42;;
60503;Laerm;51448;51.660;5.824;2023-08-07T13:08:28;59.33;42.44;79.57;;
60503;Laerm;51448;51.660;5.824;2023-08-07T13:10:55;53.32;38.07;79.06;;
60503;Laerm;51448;51.660;5.824;2023-08-07T13:13:23;51.59;40.81;75.27;;
60503;Laerm;51448;51.660;5.824;2023-08-07T13:15:50;49.93;38.97;70.27;;
60503;Laerm;51448;51.660;5.824;2023-08-07T13:18:22;55.98;39.82;86.95;;
60503;Laerm;51448;51.660;5.824;2023-08-07T13:20:50;50.54;39.12;70.30;;
60503;Laerm;51448;51.660;5.824;2023-08-07T13:23:17;50.43;41.45;68.30;;
60503;Laerm;51448;51.660;5.824;2023-08-07T13:25:45;48.59;40.68;60.98;;
60503;Laerm;51448;51.660;5.824;2023-08-07T13:28:17;47.68;39.23;58.15;;
60503;Laerm;51448;51.660;5.824;2023-08-07T13:30:45;48.63;37.06;60.13;;
60503;Laerm;51448;51.660;5.824;2023-08-07T13:33:13;53.20;43.82;75.17;;
60503;Laerm;51448;51.660;5.824;2023-08-07T13:35:40;50.37;42.49;72.07;;
60503;Laerm;51448;51.660;5.824;2023-08-07T13:38:08;49.55;41.06;66.18;;
60503;Laerm;51448;51.660;5.824;2023-08-07T13:40:37;52.18;42.37;71.98;;
60503;Laerm;51448;51.660;5.824;2023-08-07T13:43:05;50.99;40.32;76.21;;
60503;Laerm;51448;51.660;5.824;2023-08-07T13:45:36;51.49;43.12;74.28;;
60503;Laerm;51448;51.660;5.824;2023-08-07T13:48:04;47.32;39.99;60.04;;
60503;Laerm;51448;51.660;5.824;2023-08-07T13:50:34;51.82;40.81;69.51;;
60503;Laerm;51448;51.660;5.824;2023-08-07T13:53:01;51.57;41.48;63.52;;
60503;Laerm;51448;51.660;5.824;2023-08-07T13:55:42;49.42;42.51;62.27;;
60503;Laerm;51448;51.660;5.824;2023-08-07T13:58:10;49.32;39.97;75.20;;
60503;Laerm;51448;51.660;5.824;2023-08-07T14:00:38;47.96;39.84;60.62;;